LiveATC.Net - Listen to live air traffic control over the Internet! Contact for advertising information

ICAO: KHEF  IATA: HEF   Airport: Manassas Regional Airport/Harry P. Davis Field
City: Manassas   State/Province: Virginia
Country: United States   Continent: North America
KHEF METAR Weather: KHEF 130815Z 00000KT 10SM CLR 11/11 A2960 RMK AO1
KHEF Flight Activity (FlightAware)
KHEF Airport Info   (AirNav) (iFlightPlanner)
KHEF VFR Sectional Chart   (iFlightPlanner) 
KHEF IFR Low Chart   (iFlightPlanner) 
KHEF Del/Gnd/Twr
Feed Status: DOWN
Last heard on: 2015-10-12 20:25:03 (0 days 12 hours 33 minutes ago)
KHEF Del/Gnd/Twr Audio Archives
Manassas Clearance Delivery (after Tower closes)120.200
Manassas Ground121.800
Manassas Tower133.100


Unauthorized use prohibited. See Terms of Service

Find LiveATC Audio Streams

Airport/ARTCC Code

(e.g., 124.400, 128.75)
Site-wide search

Browse LiveATC Feeds
LiveATC Coverage Map
Top 50 LiveATC Feeds
Bad Weather Areas

Offer a LiveATC Feed
Press Inquiries

LiveATC on iPhone
LiveATC on Android

Windows Phone
Windows 8/10

LiveATC Mobile
(Mobile browser)

ATC Audio Archives
Interesting Recordings

LiveATC Forums

Home Page
Make a Donation
LiveATC Bookstore

Terms of Use
Privacy Policy

ATC/Radar Sites
U.S. ARTCC Freqs
Canadian Air Freqs


FAA Airport Status
Nat'l Airspace Status
Arrival Demand Charts

Server Software By:

Please make a donation to help us keep growing!